sensor_id;sensor_type;location;lat;lon;timestamp;P1;durP1;ratioP1;P2;durP2;ratioP2
75246;SDS011;63844;50.042;19.224;2023-02-04T00:01:53;9.30;;;3.10;;
75246;SDS011;63844;50.042;19.224;2023-02-04T00:04:19;8.40;;;4.00;;
75246;SDS011;63844;50.042;19.224;2023-02-04T00:06:46;8.30;;;3.20;;
75246;SDS011;63844;50.042;19.224;2023-02-04T00:09:12;9.60;;;4.00;;
75246;SDS011;63844;50.042;19.224;2023-02-04T00:11:41;10.40;;;4.60;;
75246;SDS011;63844;50.042;19.224;2023-02-04T00:14:08;7.20;;;3.40;;
75246;SDS011;63844;50.042;19.224;2023-02-04T00:16:34;5.80;;;2.30;;
75246;SDS011;63844;50.042;19.224;2023-02-04T00:19:00;9.20;;;3.20;;
75246;SDS011;63844;50.042;19.224;2023-02-04T00:21:27;6.50;;;2.70;;
75246;SDS011;63844;50.042;19.224;2023-02-04T00:23:53;13.60;;;4.80;;
75246;SDS011;63844;50.042;19.224;2023-02-04T00:26:20;6.00;;;2.50;;
75246;SDS011;63844;50.042;19.224;2023-02-04T00:28:47;13.50;;;3.90;;
75246;SDS011;63844;50.042;19.224;2023-02-04T00:31:14;5.20;;;2.20;;
75246;SDS011;63844;50.042;19.224;2023-02-04T00:33:40;7.80;;;3.50;;
75246;SDS011;63844;50.042;19.224;2023-02-04T00:36:08;7.00;;;2.80;;
75246;SDS011;63844;50.042;19.224;2023-02-04T00:38:35;7.00;;;2.50;;
75246;SDS011;63844;50.042;19.224;2023-02-04T00:41:01;5.80;;;3.10;;
75246;SDS011;63844;50.042;19.224;2023-02-04T00:43:27;6.90;;;2.80;;
75246;SDS011;63844;50.042;19.224;2023-02-04T00:45:54;7.30;;;2.30;;
75246;SDS011;63844;50.042;19.224;2023-02-04T00:48:20;7.90;;;2.40;;
75246;SDS011;63844;50.042;19.224;2023-02-04T00:50:47;6.50;;;2.30;;
75246;SDS011;63844;50.042;19.224;2023-02-04T00:53:13;4.80;;;1.70;;
75246;SDS011;63844;50.042;19.224;2023-02-04T00:55:40;5.70;;;2.80;;
75246;SDS011;63844;50.042;19.224;2023-02-04T00:58:06;4.70;;;1.80;;
75246;SDS011;63844;50.042;19.224;2023-02-04T01:00:33;5.70;;;2.60;;
75246;SDS011;63844;50.042;19.224;2023-02-04T01:02:59;5.20;;;2.40;;
75246;SDS011;63844;50.042;19.224;2023-02-04T01:05:26;4.80;;;2.40;;
75246;SDS011;63844;50.042;19.224;2023-02-04T01:07:52;4.90;;;2.30;;
75246;SDS011;63844;50.042;19.224;2023-02-04T01:10:19;7.80;;;2.10;;
75246;SDS011;63844;50.042;19.224;2023-02-04T01:12:45;4.50;;;1.80;;
75246;SDS011;63844;50.042;19.224;2023-02-04T01:15:11;2.70;;;1.50;;
75246;SDS011;63844;50.042;19.224;2023-02-04T01:17:38;4.20;;;1.50;;
75246;SDS011;63844;50.042;19.224;2023-02-04T01:20:05;3.30;;;2.00;;
75246;SDS011;63844;50.042;19.224;2023-02-04T01:22:32;4.50;;;1.70;;
75246;SDS011;63844;50.042;19.224;2023-02-04T01:24:58;5.30;;;1.20;;
75246;SDS011;63844;50.042;19.224;2023-02-04T01:27:24;3.80;;;1.60;;
75246;SDS011;63844;50.042;19.224;2023-02-04T01:29:51;4.90;;;1.90;;
75246;SDS011;63844;50.042;19.224;2023-02-04T01:32:18;4.60;;;1.80;;
75246;SDS011;63844;50.042;19.224;2023-02-04T01:34:44;6.10;;;2.00;;
75246;SDS011;63844;50.042;19.224;2023-02-04T01:37:11;3.60;;;1.50;;
75246;SDS011;63844;50.042;19.224;2023-02-04T01:39:37;4.80;;;1.50;;
75246;SDS011;63844;50.042;19.224;2023-02-04T01:42:04;3.50;;;1.70;;
75246;SDS011;63844;50.042;19.224;2023-02-04T01:44:30;4.20;;;1.80;;
75246;SDS011;63844;50.042;19.224;2023-02-04T01:46:57;1.80;;;0.80;;
75246;SDS011;63844;50.042;19.224;2023-02-04T01:49:24;4.80;;;1.80;;
75246;SDS011;63844;50.042;19.224;2023-02-04T01:54:18;4.80;;;1.60;;
75246;SDS011;63844;50.042;19.224;2023-02-04T01:56:46;3.50;;;1.30;;
75246;SDS011;63844;50.042;19.224;2023-02-04T01:59:15;4.30;;;2.00;;
75246;SDS011;63844;50.042;19.224;2023-02-04T02:01:44;5.10;;;1.80;;
75246;SDS011;63844;50.042;19.224;2023-02-04T02:04:14;2.00;;;1.10;;
75246;SDS011;63844;50.042;19.224;2023-02-04T02:06:53;3.00;;;1.60;;
75246;SDS011;63844;50.042;19.224;2023-02-04T02:09:23;4.40;;;1.30;;
75246;SDS011;63844;50.042;19.224;2023-02-04T02:11:51;3.00;;;1.20;;
75246;SDS011;63844;50.042;19.224;2023-02-04T02:14:17;3.90;;;1.60;;
75246;SDS011;63844;50.042;19.224;2023-02-04T02:16:44;4.30;;;1.60;;
75246;SDS011;63844;50.042;19.224;2023-02-04T02:19:11;3.30;;;1.00;;
75246;SDS011;63844;50.042;19.224;2023-02-04T02:21:46;1.80;;;1.00;;
75246;SDS011;63844;50.042;19.224;2023-02-04T02:24:25;1.50;;;0.60;;
75246;SDS011;63844;50.042;19.224;2023-02-04T02:26:53;0.90;;;0.50;;
75246;SDS011;63844;50.042;19.224;2023-02-04T02:29:21;2.00;;;0.70;;
75246;SDS011;63844;50.042;19.224;2023-02-04T02:34:15;0.70;;;0.30;;
75246;SDS011;63844;50.042;19.224;2023-02-04T02:36:42;2.40;;;0.90;;
75246;SDS011;63844;50.042;19.224;2023-02-04T02:39:09;2.00;;;0.90;;
75246;SDS011;63844;50.042;19.224;2023-02-04T02:44:02;1.80;;;0.70;;
75246;SDS011;63844;50.042;19.224;2023-02-04T02:46:29;2.00;;;0.60;;
75246;SDS011;63844;50.042;19.224;2023-02-04T02:48:55;1.40;;;0.60;;
75246;SDS011;63844;50.042;19.224;2023-02-04T02:51:22;1.90;;;0.70;;
75246;SDS011;63844;50.042;19.224;2023-02-04T02:53:48;2.20;;;0.80;;
75246;SDS011;63844;50.042;19.224;2023-02-04T02:56:16;4.90;;;1.80;;
75246;SDS011;63844;50.042;19.224;2023-02-04T02:58:44;2.00;;;1.30;;
75246;SDS011;63844;50.042;19.224;2023-02-04T03:01:11;2.30;;;1.00;;
75246;SDS011;63844;50.042;19.224;2023-02-04T03:03:39;3.20;;;0.80;;
75246;SDS011;63844;50.042;19.224;2023-02-04T03:06:14;2.80;;;1.20;;
75246;SDS011;63844;50.042;19.224;2023-02-04T03:08:45;0.90;;;0.60;;
75246;SDS011;63844;50.042;19.224;2023-02-04T03:11:15;1.60;;;0.80;;
75246;SDS011;63844;50.042;19.224;2023-02-04T03:13:42;1.60;;;0.90;;
75246;SDS011;63844;50.042;19.224;2023-02-04T03:16:08;2.80;;;0.90;;
75246;SDS011;63844;50.042;19.224;2023-02-04T03:18:35;1.80;;;0.60;;
75246;SDS011;63844;50.042;19.224;2023-02-04T03:21:03;2.10;;;1.00;;
75246;SDS011;63844;50.042;19.224;2023-02-04T03:23:32;1.80;;;0.90;;
75246;SDS011;63844;50.042;19.224;2023-02-04T03:26:00;1.60;;;0.70;;
75246;SDS011;63844;50.042;19.224;2023-02-04T03:28:27;2.00;;;1.00;;
75246;SDS011;63844;50.042;19.224;2023-02-04T03:30:55;2.70;;;1.50;;
75246;SDS011;63844;50.042;19.224;2023-02-04T03:33:23;3.50;;;1.60;;
75246;SDS011;63844;50.042;19.224;2023-02-04T03:35:51;2.50;;;1.70;;
75246;SDS011;63844;50.042;19.224;2023-02-04T03:38:18;2.90;;;1.40;;
75246;SDS011;63844;50.042;19.224;2023-02-04T03:40:44;1.30;;;0.60;;
75246;SDS011;63844;50.042;19.224;2023-02-04T03:43:11;4.40;;;1.90;;
75246;SDS011;63844;50.042;19.224;2023-02-04T03:45:37;2.10;;;1.20;;
75246;SDS011;63844;50.042;19.224;2023-02-04T03:48:04;4.20;;;2.30;;
75246;SDS011;63844;50.042;19.224;2023-02-04T03:50:30;4.60;;;3.10;;
75246;SDS011;63844;50.042;19.224;2023-02-04T03:52:57;5.30;;;2.90;;
75246;SDS011;63844;50.042;19.224;2023-02-04T03:55:24;6.80;;;3.60;;
75246;SDS011;63844;50.042;19.224;2023-02-04T03:57:51;4.60;;;2.70;;
75246;SDS011;63844;50.042;19.224;2023-02-04T04:00:19;3.70;;;2.70;;
75246;SDS011;63844;50.042;19.224;2023-02-04T04:02:45;4.10;;;2.10;;
75246;SDS011;63844;50.042;19.224;2023-02-04T04:05:12;3.60;;;2.50;;
75246;SDS011;63844;50.042;19.224;2023-02-04T04:07:38;4.70;;;2.90;;
75246;SDS011;63844;50.042;19.224;2023-02-04T04:10:05;3.90;;;2.30;;
75246;SDS011;63844;50.042;19.224;2023-02-04T04:27:10;3.10;;;1.50;;
75246;SDS011;63844;50.042;19.224;2023-02-04T04:29:37;3.10;;;1.50;;
75246;SDS011;63844;50.042;19.224;2023-02-04T04:32:03;2.10;;;1.10;;
75246;SDS011;63844;50.042;19.224;2023-02-04T04:34:30;2.30;;;1.20;;
75246;SDS011;63844;50.042;19.224;2023-02-04T04:36:56;2.30;;;1.00;;
75246;SDS011;63844;50.042;19.224;2023-02-04T04:39:23;6.90;;;2.00;;
75246;SDS011;63844;50.042;19.224;2023-02-04T04:41:49;8.60;;;3.20;;
75246;SDS011;63844;50.042;19.224;2023-02-04T04:44:16;6.40;;;2.70;;
75246;SDS011;63844;50.042;19.224;2023-02-04T04:46:42;9.90;;;2.80;;
75246;SDS011;63844;50.042;19.224;2023-02-04T04:49:09;7.80;;;2.60;;
75246;SDS011;63844;50.042;19.224;2023-02-04T04:51:35;10.00;;;2.70;;
75246;SDS011;63844;50.042;19.224;2023-02-04T04:54:02;10.90;;;4.10;;
75246;SDS011;63844;50.042;19.224;2023-02-04T04:56:28;11.70;;;3.60;;
75246;SDS011;63844;50.042;19.224;2023-02-04T04:58:55;12.20;;;3.70;;
75246;SDS011;63844;50.042;19.224;2023-02-04T05:01:21;12.60;;;4.20;;
75246;SDS011;63844;50.042;19.224;2023-02-04T05:03:48;7.30;;;2.60;;
75246;SDS011;63844;50.042;19.224;2023-02-04T05:06:15;10.40;;;3.20;;
75246;SDS011;63844;50.042;19.224;2023-02-04T05:08:41;6.20;;;2.40;;
75246;SDS011;63844;50.042;19.224;2023-02-04T05:11:08;7.40;;;3.10;;
75246;SDS011;63844;50.042;19.224;2023-02-04T05:13:34;7.60;;;2.80;;
75246;SDS011;63844;50.042;19.224;2023-02-04T05:16:01;8.00;;;3.00;;
75246;SDS011;63844;50.042;19.224;2023-02-04T05:18:27;6.80;;;2.70;;
75246;SDS011;63844;50.042;19.224;2023-02-04T05:20:54;10.30;;;3.70;;
75246;SDS011;63844;50.042;19.224;2023-02-04T05:23:20;6.50;;;2.80;;
75246;SDS011;63844;50.042;19.224;2023-02-04T05:25:46;8.00;;;3.40;;
75246;SDS011;63844;50.042;19.224;2023-02-04T05:28:13;8.50;;;3.30;;
75246;SDS011;63844;50.042;19.224;2023-02-04T05:30:39;9.90;;;3.40;;
75246;SDS011;63844;50.042;19.224;2023-02-04T05:33:06;9.20;;;3.00;;
75246;SDS011;63844;50.042;19.224;2023-02-04T05:35:32;6.50;;;2.20;;
75246;SDS011;63844;50.042;19.224;2023-02-04T05:37:58;6.00;;;2.50;;
75246;SDS011;63844;50.042;19.224;2023-02-04T05:40:25;7.20;;;2.90;;
75246;SDS011;63844;50.042;19.224;2023-02-04T05:42:51;6.20;;;2.60;;
75246;SDS011;63844;50.042;19.224;2023-02-04T05:45:18;7.60;;;2.70;;
75246;SDS011;63844;50.042;19.224;2023-02-04T05:47:45;8.00;;;2.30;;
75246;SDS011;63844;50.042;19.224;2023-02-04T05:50:11;6.20;;;2.20;;
75246;SDS011;63844;50.042;19.224;2023-02-04T05:52:37;7.30;;;2.90;;
75246;SDS011;63844;50.042;19.224;2023-02-04T05:55:05;6.10;;;2.40;;
75246;SDS011;63844;50.042;19.224;2023-02-04T05:57:32;5.40;;;2.60;;
75246;SDS011;63844;50.042;19.224;2023-02-04T05:59:59;6.20;;;2.10;;
75246;SDS011;63844;50.042;19.224;2023-02-04T06:02:25;2.80;;;1.10;;
75246;SDS011;63844;50.042;19.224;2023-02-04T06:04:51;3.50;;;1.40;;
75246;SDS011;63844;50.042;19.224;2023-02-04T06:07:18;7.20;;;2.00;;
75246;SDS011;63844;50.042;19.224;2023-02-04T06:09:44;6.50;;;2.30;;
75246;SDS011;63844;50.042;19.224;2023-02-04T06:12:11;5.80;;;2.50;;
75246;SDS011;63844;50.042;19.224;2023-02-04T06:14:37;8.40;;;3.10;;
75246;SDS011;63844;50.042;19.224;2023-02-04T06:17:04;5.70;;;2.10;;
75246;SDS011;63844;50.042;19.224;2023-02-04T06:19:30;6.00;;;2.00;;
75246;SDS011;63844;50.042;19.224;2023-02-04T06:21:57;5.20;;;1.80;;
75246;SDS011;63844;50.042;19.224;2023-02-04T06:24:24;7.20;;;2.80;;
75246;SDS011;63844;50.042;19.224;2023-02-04T06:26:50;4.70;;;1.80;;
75246;SDS011;63844;50.042;19.224;2023-02-04T06:29:16;7.00;;;2.80;;
75246;SDS011;63844;50.042;19.224;2023-02-04T06:31:43;9.50;;;2.90;;
75246;SDS011;63844;50.042;19.224;2023-02-04T06:34:09;6.90;;;2.30;;
75246;SDS011;63844;50.042;19.224;2023-02-04T06:36:36;5.10;;;1.70;;
75246;SDS011;63844;50.042;19.224;2023-02-04T06:39:03;4.30;;;2.00;;
75246;SDS011;63844;50.042;19.224;2023-02-04T06:41:29;4.40;;;1.40;;
75246;SDS011;63844;50.042;19.224;2023-02-04T06:43:56;4.70;;;1.30;;
75246;SDS011;63844;50.042;19.224;2023-02-04T06:46:22;3.70;;;1.60;;
75246;SDS011;63844;50.042;19.224;2023-02-04T06:48:49;5.00;;;1.70;;
75246;SDS011;63844;50.042;19.224;2023-02-04T06:51:15;2.80;;;1.20;;
75246;SDS011;63844;50.042;19.224;2023-02-04T06:53:42;2.90;;;1.30;;
75246;SDS011;63844;50.042;19.224;2023-02-04T06:56:10;5.70;;;2.20;;
75246;SDS011;63844;50.042;19.224;2023-02-04T06:58:37;7.30;;;2.40;;
75246;SDS011;63844;50.042;19.224;2023-02-04T07:01:04;7.50;;;3.10;;
75246;SDS011;63844;50.042;19.224;2023-02-04T07:05:57;5.80;;;2.20;;
75246;SDS011;63844;50.042;19.224;2023-02-04T07:08:24;8.60;;;3.30;;
75246;SDS011;63844;50.042;19.224;2023-02-04T07:10:50;13.50;;;3.80;;
75246;SDS011;63844;50.042;19.224;2023-02-04T07:13:17;11.00;;;5.00;;
75246;SDS011;63844;50.042;19.224;2023-02-04T07:15:43;5.10;;;2.40;;
75246;SDS011;63844;50.042;19.224;2023-02-04T07:18:09;7.90;;;3.50;;
75246;SDS011;63844;50.042;19.224;2023-02-04T07:20:36;7.40;;;3.00;;
75246;SDS011;63844;50.042;19.224;2023-02-04T07:23:02;10.50;;;3.70;;
75246;SDS011;63844;50.042;19.224;2023-02-04T07:25:29;17.20;;;4.70;;
75246;SDS011;63844;50.042;19.224;2023-02-04T07:27:56;14.40;;;3.30;;
75246;SDS011;63844;50.042;19.224;2023-02-04T07:30:24;8.30;;;3.20;;
75246;SDS011;63844;50.042;19.224;2023-02-04T07:32:50;6.30;;;2.90;;
75246;SDS011;63844;50.042;19.224;2023-02-04T07:35:17;7.70;;;3.20;;
75246;SDS011;63844;50.042;19.224;2023-02-04T07:37:43;3.80;;;2.00;;
75246;SDS011;63844;50.042;19.224;2023-02-04T07:40:10;4.20;;;2.40;;
75246;SDS011;63844;50.042;19.224;2023-02-04T07:42:37;5.10;;;2.10;;
75246;SDS011;63844;50.042;19.224;2023-02-04T07:45:04;5.20;;;2.80;;
75246;SDS011;63844;50.042;19.224;2023-02-04T07:47:31;2.60;;;1.00;;
75246;SDS011;63844;50.042;19.224;2023-02-04T07:49:57;5.20;;;2.60;;
75246;SDS011;63844;50.042;19.224;2023-02-04T07:52:24;6.70;;;2.60;;
75246;SDS011;63844;50.042;19.224;2023-02-04T07:54:51;6.60;;;3.10;;
75246;SDS011;63844;50.042;19.224;2023-02-04T07:57:20;11.10;;;4.90;;
75246;SDS011;63844;50.042;19.224;2023-02-04T07:59:47;10.50;;;5.00;;
75246;SDS011;63844;50.042;19.224;2023-02-04T08:02:13;13.70;;;5.50;;
75246;SDS011;63844;50.042;19.224;2023-02-04T08:04:40;14.10;;;4.50;;
75246;SDS011;63844;50.042;19.224;2023-02-04T08:07:07;8.20;;;3.70;;
75246;SDS011;63844;50.042;19.224;2023-02-04T08:09:33;6.90;;;2.60;;
75246;SDS011;63844;50.042;19.224;2023-02-04T08:12:00;7.40;;;3.10;;
75246;SDS011;63844;50.042;19.224;2023-02-04T08:14:26;7.90;;;3.10;;
75246;SDS011;63844;50.042;19.224;2023-02-04T08:16:53;9.80;;;3.40;;
75246;SDS011;63844;50.042;19.224;2023-02-04T08:19:19;9.10;;;3.30;;
75246;SDS011;63844;50.042;19.224;2023-02-04T08:24:13;10.50;;;4.00;;
75246;SDS011;63844;50.042;19.224;2023-02-04T08:26:41;11.00;;;3.90;;
75246;SDS011;63844;50.042;19.224;2023-02-04T08:29:09;8.00;;;3.00;;
75246;SDS011;63844;50.042;19.224;2023-02-04T08:31:36;10.70;;;4.10;;
75246;SDS011;63844;50.042;19.224;2023-02-04T08:34:03;11.80;;;4.70;;
75246;SDS011;63844;50.042;19.224;2023-02-04T08:36:31;10.00;;;3.70;;
75246;SDS011;63844;50.042;19.224;2023-02-04T08:38:58;9.70;;;3.30;;
75246;SDS011;63844;50.042;19.224;2023-02-04T08:41:24;10.00;;;3.00;;
75246;SDS011;63844;50.042;19.224;2023-02-04T08:43:50;9.60;;;3.80;;
75246;SDS011;63844;50.042;19.224;2023-02-04T08:46:17;5.50;;;2.50;;
75246;SDS011;63844;50.042;19.224;2023-02-04T08:48:44;11.70;;;3.70;;
75246;SDS011;63844;50.042;19.224;2023-02-04T08:51:10;5.10;;;2.10;;
75246;SDS011;63844;50.042;19.224;2023-02-04T08:53:37;10.90;;;4.00;;
75246;SDS011;63844;50.042;19.224;2023-02-04T08:56:05;9.60;;;3.20;;
75246;SDS011;63844;50.042;19.224;2023-02-04T08:58:33;8.40;;;3.20;;
75246;SDS011;63844;50.042;19.224;2023-02-04T09:01:00;6.00;;;3.00;;
75246;SDS011;63844;50.042;19.224;2023-02-04T09:15:39;8.40;;;3.10;;
75246;SDS011;63844;50.042;19.224;2023-02-04T09:18:06;10.50;;;3.30;;
75246;SDS011;63844;50.042;19.224;2023-02-04T09:20:44;12.40;;;3.10;;
75246;SDS011;63844;50.042;19.224;2023-02-04T09:25:38;9.80;;;3.20;;
75246;SDS011;63844;50.042;19.224;2023-02-04T09:28:05;10.30;;;3.90;;
75246;SDS011;63844;50.042;19.224;2023-02-04T09:30:35;9.70;;;3.60;;
75246;SDS011;63844;50.042;19.224;2023-02-04T09:33:01;7.80;;;2.80;;
75246;SDS011;63844;50.042;19.224;2023-02-04T09:35:28;8.60;;;3.60;;
75246;SDS011;63844;50.042;19.224;2023-02-04T09:37:54;8.00;;;3.20;;
75246;SDS011;63844;50.042;19.224;2023-02-04T09:40:21;5.60;;;2.30;;
75246;SDS011;63844;50.042;19.224;2023-02-04T09:42:49;7.50;;;2.80;;
75246;SDS011;63844;50.042;19.224;2023-02-04T09:45:18;7.80;;;2.80;;
75246;SDS011;63844;50.042;19.224;2023-02-04T09:47:52;10.40;;;4.30;;
75246;SDS011;63844;50.042;19.224;2023-02-04T09:50:21;6.20;;;3.20;;
75246;SDS011;63844;50.042;19.224;2023-02-04T09:52:51;8.10;;;3.20;;
75246;SDS011;63844;50.042;19.224;2023-02-04T09:55:21;7.30;;;3.80;;
75246;SDS011;63844;50.042;19.224;2023-02-04T09:57:57;6.30;;;3.20;;
75246;SDS011;63844;50.042;19.224;2023-02-04T10:00:27;7.50;;;3.20;;
75246;SDS011;63844;50.042;19.224;2023-02-04T10:02:56;7.50;;;3.00;;
75246;SDS011;63844;50.042;19.224;2023-02-04T10:05:29;5.80;;;2.70;;
75246;SDS011;63844;50.042;19.224;2023-02-04T10:07:57;6.10;;;3.10;;
75246;SDS011;63844;50.042;19.224;2023-02-04T10:10:24;5.10;;;2.80;;
75246;SDS011;63844;50.042;19.224;2023-02-04T10:12:55;4.10;;;1.60;;
75246;SDS011;63844;50.042;19.224;2023-02-04T10:15:27;7.20;;;2.90;;
75246;SDS011;63844;50.042;19.224;2023-02-04T10:17:54;5.50;;;2.80;;
75246;SDS011;63844;50.042;19.224;2023-02-04T10:20:26;7.20;;;3.60;;
75246;SDS011;63844;50.042;19.224;2023-02-04T10:22:53;7.80;;;3.90;;
75246;SDS011;63844;50.042;19.224;2023-02-04T10:25:22;6.00;;;3.00;;
75246;SDS011;63844;50.042;19.224;2023-02-04T10:27:51;6.60;;;3.40;;
75246;SDS011;63844;50.042;19.224;2023-02-04T10:30:20;7.90;;;3.60;;
75246;SDS011;63844;50.042;19.224;2023-02-04T10:32:50;8.40;;;3.20;;
75246;SDS011;63844;50.042;19.224;2023-02-04T10:35:17;7.90;;;3.00;;
75246;SDS011;63844;50.042;19.224;2023-02-04T10:37:45;13.20;;;4.40;;
75246;SDS011;63844;50.042;19.224;2023-02-04T10:43:16;3.80;;;2.40;;
75246;SDS011;63844;50.042;19.224;2023-02-04T10:45:47;7.70;;;3.00;;
75246;SDS011;63844;50.042;19.224;2023-02-04T10:48:21;7.40;;;2.10;;
75246;SDS011;63844;50.042;19.224;2023-02-04T10:50:48;6.90;;;2.30;;
75246;SDS011;63844;50.042;19.224;2023-02-04T10:53:15;4.80;;;2.10;;
75246;SDS011;63844;50.042;19.224;2023-02-04T10:56:04;5.50;;;2.10;;
75246;SDS011;63844;50.042;19.224;2023-02-04T10:58:37;4.80;;;1.80;;
75246;SDS011;63844;50.042;19.224;2023-02-04T11:01:07;9.10;;;3.10;;
75246;SDS011;63844;50.042;19.224;2023-02-04T11:03:36;6.40;;;2.80;;
75246;SDS011;63844;50.042;19.224;2023-02-04T11:06:04;3.90;;;1.70;;
75246;SDS011;63844;50.042;19.224;2023-02-04T11:08:36;4.00;;;2.20;;
75246;SDS011;63844;50.042;19.224;2023-02-04T11:11:08;5.90;;;2.20;;
75246;SDS011;63844;50.042;19.224;2023-02-04T11:18:45;4.60;;;1.90;;
75246;SDS011;63844;50.042;19.224;2023-02-04T11:26:37;7.10;;;2.40;;
75246;SDS011;63844;50.042;19.224;2023-02-04T11:29:23;7.90;;;2.40;;
75246;SDS011;63844;50.042;19.224;2023-02-04T11:31:55;4.80;;;2.00;;
75246;SDS011;63844;50.042;19.224;2023-02-04T11:34:26;10.20;;;3.30;;
75246;SDS011;63844;50.042;19.224;2023-02-04T11:39:23;8.20;;;2.70;;
75246;SDS011;63844;50.042;19.224;2023-02-04T11:41:54;7.80;;;2.50;;
75246;SDS011;63844;50.042;19.224;2023-02-04T11:44:21;6.70;;;2.40;;
75246;SDS011;63844;50.042;19.224;2023-02-04T11:46:51;8.30;;;2.50;;
75246;SDS011;63844;50.042;19.224;2023-02-04T11:51:49;6.40;;;2.00;;
75246;SDS011;63844;50.042;19.224;2023-02-04T11:54:16;7.90;;;2.20;;
75246;SDS011;63844;50.042;19.224;2023-02-04T11:56:45;11.00;;;2.50;;
75246;SDS011;63844;50.042;19.224;2023-02-04T11:59:12;5.50;;;1.40;;
75246;SDS011;63844;50.042;19.224;2023-02-04T12:01:40;9.20;;;2.50;;
75246;SDS011;63844;50.042;19.224;2023-02-04T12:04:18;6.80;;;2.10;;
75246;SDS011;63844;50.042;19.224;2023-02-04T12:06:57;2.90;;;1.30;;
75246;SDS011;63844;50.042;19.224;2023-02-04T12:09:26;9.80;;;2.40;;
75246;SDS011;63844;50.042;19.224;2023-02-04T12:12:01;5.60;;;1.80;;
75246;SDS011;63844;50.042;19.224;2023-02-04T12:14:33;7.80;;;1.90;;
75246;SDS011;63844;50.042;19.224;2023-02-04T12:17:16;5.00;;;1.70;;
75246;SDS011;63844;50.042;19.224;2023-02-04T12:19:45;4.70;;;1.30;;
75246;SDS011;63844;50.042;19.224;2023-02-04T12:22:11;6.40;;;2.00;;
75246;SDS011;63844;50.042;19.224;2023-02-04T12:24:39;6.00;;;2.10;;
75246;SDS011;63844;50.042;19.224;2023-02-04T12:27:06;5.40;;;2.20;;
75246;SDS011;63844;50.042;19.224;2023-02-04T12:29:33;3.50;;;1.10;;
75246;SDS011;63844;50.042;19.224;2023-02-04T12:31:59;4.50;;;1.40;;
75246;SDS011;63844;50.042;19.224;2023-02-04T12:34:26;7.30;;;2.40;;
75246;SDS011;63844;50.042;19.224;2023-02-04T12:41:46;7.10;;;1.40;;
75246;SDS011;63844;50.042;19.224;2023-02-04T12:44:12;2.70;;;0.80;;
75246;SDS011;63844;50.042;19.224;2023-02-04T12:46:40;11.10;;;2.80;;
75246;SDS011;63844;50.042;19.224;2023-02-04T12:49:06;7.80;;;2.20;;
75246;SDS011;63844;50.042;19.224;2023-02-04T12:51:33;3.90;;;1.00;;
75246;SDS011;63844;50.042;19.224;2023-02-04T12:53:59;3.90;;;0.80;;
75246;SDS011;63844;50.042;19.224;2023-02-04T12:56:26;13.60;;;3.40;;
75246;SDS011;63844;50.042;19.224;2023-02-04T12:58:52;8.10;;;2.50;;
75246;SDS011;63844;50.042;19.224;2023-02-04T13:01:19;8.10;;;2.20;;
75246;SDS011;63844;50.042;19.224;2023-02-04T13:03:45;4.80;;;1.90;;
75246;SDS011;63844;50.042;19.224;2023-02-04T13:06:12;1.70;;;0.70;;
75246;SDS011;63844;50.042;19.224;2023-02-04T13:08:38;8.60;;;2.60;;
75246;SDS011;63844;50.042;19.224;2023-02-04T13:11:05;2.90;;;1.20;;
75246;SDS011;63844;50.042;19.224;2023-02-04T13:13:31;2.60;;;0.80;;
75246;SDS011;63844;50.042;19.224;2023-02-04T13:15:58;2.90;;;1.10;;
75246;SDS011;63844;50.042;19.224;2023-02-04T13:18:24;2.10;;;0.50;;
75246;SDS011;63844;50.042;19.224;2023-02-04T13:20:51;4.00;;;1.10;;
75246;SDS011;63844;50.042;19.224;2023-02-04T13:23:17;4.00;;;1.30;;
75246;SDS011;63844;50.042;19.224;2023-02-04T13:25:44;2.30;;;0.50;;
75246;SDS011;63844;50.042;19.224;2023-02-04T13:28:10;2.30;;;0.70;;
75246;SDS011;63844;50.042;19.224;2023-02-04T13:30:37;3.30;;;1.00;;
75246;SDS011;63844;50.042;19.224;2023-02-04T13:33:03;8.20;;;2.10;;
75246;SDS011;63844;50.042;19.224;2023-02-04T13:35:30;6.40;;;2.20;;
75246;SDS011;63844;50.042;19.224;2023-02-04T13:37:56;6.10;;;2.30;;
75246;SDS011;63844;50.042;19.224;2023-02-04T13:40:23;5.90;;;1.80;;
75246;SDS011;63844;50.042;19.224;2023-02-04T13:42:49;5.20;;;2.00;;
75246;SDS011;63844;50.042;19.224;2023-02-04T13:45:16;6.80;;;1.70;;
75246;SDS011;63844;50.042;19.224;2023-02-04T13:47:44;4.20;;;1.90;;
75246;SDS011;63844;50.042;19.224;2023-02-04T13:50:13;4.40;;;1.80;;
75246;SDS011;63844;50.042;19.224;2023-02-04T13:52:41;8.00;;;2.20;;
75246;SDS011;63844;50.042;19.224;2023-02-04T13:55:08;7.40;;;2.90;;
75246;SDS011;63844;50.042;19.224;2023-02-04T13:57:34;5.10;;;1.40;;
75246;SDS011;63844;50.042;19.224;2023-02-04T14:00:04;5.00;;;1.60;;
75246;SDS011;63844;50.042;19.224;2023-02-04T14:02:32;10.50;;;3.40;;
75246;SDS011;63844;50.042;19.224;2023-02-04T14:04:59;8.90;;;2.00;;
75246;SDS011;63844;50.042;19.224;2023-02-04T14:07:26;4.10;;;1.50;;
75246;SDS011;63844;50.042;19.224;2023-02-04T14:09:53;14.90;;;4.10;;
75246;SDS011;63844;50.042;19.224;2023-02-04T14:12:19;10.20;;;2.60;;
75246;SDS011;63844;50.042;19.224;2023-02-04T14:14:46;11.40;;;2.90;;
75246;SDS011;63844;50.042;19.224;2023-02-04T14:17:12;9.30;;;2.50;;
75246;SDS011;63844;50.042;19.224;2023-02-04T14:19:39;4.00;;;1.40;;
75246;SDS011;63844;50.042;19.224;2023-02-04T14:22:05;7.80;;;1.90;;
75246;SDS011;63844;50.042;19.224;2023-02-04T14:27:00;6.70;;;1.60;;
75246;SDS011;63844;50.042;19.224;2023-02-04T14:29:32;6.30;;;1.90;;
75246;SDS011;63844;50.042;19.224;2023-02-04T14:34:26;4.60;;;1.70;;
75246;SDS011;63844;50.042;19.224;2023-02-04T14:36:52;8.20;;;2.30;;
75246;SDS011;63844;50.042;19.224;2023-02-04T14:39:19;8.10;;;2.00;;
75246;SDS011;63844;50.042;19.224;2023-02-04T14:41:45;3.70;;;0.90;;
75246;SDS011;63844;50.042;19.224;2023-02-04T14:44:12;4.00;;;1.70;;
75246;SDS011;63844;50.042;19.224;2023-02-04T14:46:44;9.30;;;2.40;;
75246;SDS011;63844;50.042;19.224;2023-02-04T14:49:16;5.00;;;2.20;;
75246;SDS011;63844;50.042;19.224;2023-02-04T14:51:43;6.00;;;2.40;;
75246;SDS011;63844;50.042;19.224;2023-02-04T14:54:10;6.70;;;1.80;;
75246;SDS011;63844;50.042;19.224;2023-02-04T14:56:36;4.20;;;1.90;;
75246;SDS011;63844;50.042;19.224;2023-02-04T14:59:03;5.60;;;1.60;;
75246;SDS011;63844;50.042;19.224;2023-02-04T15:01:29;5.00;;;1.10;;
75246;SDS011;63844;50.042;19.224;2023-02-04T15:03:56;4.40;;;1.50;;
75246;SDS011;63844;50.042;19.224;2023-02-04T15:06:23;4.90;;;2.00;;
75246;SDS011;63844;50.042;19.224;2023-02-04T15:08:50;6.70;;;2.30;;
75246;SDS011;63844;50.042;19.224;2023-02-04T15:11:16;5.30;;;1.50;;
75246;SDS011;63844;50.042;19.224;2023-02-04T15:13:43;4.80;;;1.80;;
75246;SDS011;63844;50.042;19.224;2023-02-04T15:16:09;4.70;;;1.50;;
75246;SDS011;63844;50.042;19.224;2023-02-04T15:18:37;6.00;;;1.50;;
75246;SDS011;63844;50.042;19.224;2023-02-04T15:21:03;7.50;;;1.90;;
75246;SDS011;63844;50.042;19.224;2023-02-04T15:23:30;6.00;;;2.40;;
75246;SDS011;63844;50.042;19.224;2023-02-04T15:25:57;6.60;;;2.10;;
75246;SDS011;63844;50.042;19.224;2023-02-04T15:28:23;5.30;;;1.40;;
75246;SDS011;63844;50.042;19.224;2023-02-04T15:30:50;7.30;;;2.20;;
75246;SDS011;63844;50.042;19.224;2023-02-04T15:33:16;5.70;;;1.80;;
75246;SDS011;63844;50.042;19.224;2023-02-04T15:35:43;4.80;;;1.80;;
75246;SDS011;63844;50.042;19.224;2023-02-04T15:38:10;5.10;;;1.80;;
75246;SDS011;63844;50.042;19.224;2023-02-04T15:40:36;5.20;;;1.80;;
75246;SDS011;63844;50.042;19.224;2023-02-04T15:43:03;5.40;;;1.80;;
75246;SDS011;63844;50.042;19.224;2023-02-04T15:45:29;7.50;;;2.50;;